sensor_id;sensor_type;location;lat;lon;timestamp;P1;durP1;ratioP1;P2;durP2;ratioP2
10309;SDS011;5200;43.236;27.986;2023-04-01T00:01:50;6.47;;;3.35;;
10309;SDS011;5200;43.236;27.986;2023-04-01T00:04:17;5.78;;;3.03;;
10309;SDS011;5200;43.236;27.986;2023-04-01T00:06:43;5.43;;;2.90;;
10309;SDS011;5200;43.236;27.986;2023-04-01T00:09:13;6.25;;;2.70;;
10309;SDS011;5200;43.236;27.986;2023-04-01T00:11:40;8.93;;;3.00;;
10309;SDS011;5200;43.236;27.986;2023-04-01T00:14:07;5.07;;;2.88;;
10309;SDS011;5200;43.236;27.986;2023-04-01T00:16:35;4.10;;;2.75;;
10309;SDS011;5200;43.236;27.986;2023-04-01T00:19:02;4.10;;;2.40;;
10309;SDS011;5200;43.236;27.986;2023-04-01T00:21:29;3.58;;;2.75;;
10309;SDS011;5200;43.236;27.986;2023-04-01T00:23:56;7.55;;;2.70;;
10309;SDS011;5200;43.236;27.986;2023-04-01T00:26:25;4.03;;;2.60;;
10309;SDS011;5200;43.236;27.986;2023-04-01T00:28:52;6.97;;;2.72;;
10309;SDS011;5200;43.236;27.986;2023-04-01T00:31:19;5.85;;;3.05;;
10309;SDS011;5200;43.236;27.986;2023-04-01T00:33:46;4.63;;;3.00;;
10309;SDS011;5200;43.236;27.986;2023-04-01T00:36:14;4.05;;;2.70;;
10309;SDS011;5200;43.236;27.986;2023-04-01T00:38:42;4.97;;;2.72;;
10309;SDS011;5200;43.236;27.986;2023-04-01T00:41:10;6.70;;;2.58;;
10309;SDS011;5200;43.236;27.986;2023-04-01T00:43:41;4.43;;;2.92;;
10309;SDS011;5200;43.236;27.986;2023-04-01T00:46:08;4.80;;;2.92;;
10309;SDS011;5200;43.236;27.986;2023-04-01T00:48:35;5.70;;;2.70;;
10309;SDS011;5200;43.236;27.986;2023-04-01T00:51:05;5.65;;;2.70;;
10309;SDS011;5200;43.236;27.986;2023-04-01T00:53:34;3.90;;;2.45;;
10309;SDS011;5200;43.236;27.986;2023-04-01T00:56:05;3.55;;;2.47;;
10309;SDS011;5200;43.236;27.986;2023-04-01T00:58:37;4.20;;;2.90;;
10309;SDS011;5200;43.236;27.986;2023-04-01T01:01:09;24.08;;;13.43;;
10309;SDS011;5200;43.236;27.986;2023-04-01T01:03:36;22.15;;;11.55;;
10309;SDS011;5200;43.236;27.986;2023-04-01T01:08:57;25.33;;;15.05;;
10309;SDS011;5200;43.236;27.986;2023-04-01T01:11:40;22.23;;;14.50;;
10309;SDS011;5200;43.236;27.986;2023-04-01T01:14:10;18.85;;;13.57;;
10309;SDS011;5200;43.236;27.986;2023-04-01T01:16:51;22.88;;;15.02;;
10309;SDS011;5200;43.236;27.986;2023-04-01T01:22:36;19.52;;;13.07;;
10309;SDS011;5200;43.236;27.986;2023-04-01T01:25:25;22.83;;;13.95;;
10309;SDS011;5200;43.236;27.986;2023-04-01T01:28:06;21.20;;;14.27;;
10309;SDS011;5200;43.236;27.986;2023-04-01T01:30:50;26.73;;;15.35;;
10309;SDS011;5200;43.236;27.986;2023-04-01T01:33:27;18.70;;;12.82;;
10309;SDS011;5200;43.236;27.986;2023-04-01T01:36:07;20.98;;;12.80;;
10309;SDS011;5200;43.236;27.986;2023-04-01T01:38:38;14.07;;;11.13;;
10309;SDS011;5200;43.236;27.986;2023-04-01T01:41:06;14.25;;;11.38;;
10309;SDS011;5200;43.236;27.986;2023-04-01T01:43:35;17.60;;;12.68;;
10309;SDS011;5200;43.236;27.986;2023-04-01T01:46:05;19.17;;;12.75;;
10309;SDS011;5200;43.236;27.986;2023-04-01T01:48:36;24.42;;;13.73;;
10309;SDS011;5200;43.236;27.986;2023-04-01T01:51:03;23.10;;;12.32;;
10309;SDS011;5200;43.236;27.986;2023-04-01T01:53:33;15.30;;;9.73;;
10309;SDS011;5200;43.236;27.986;2023-04-01T01:56:00;14.73;;;8.63;;
10309;SDS011;5200;43.236;27.986;2023-04-01T01:58:28;12.23;;;6.82;;
10309;SDS011;5200;43.236;27.986;2023-04-01T02:00:57;8.57;;;6.25;;
10309;SDS011;5200;43.236;27.986;2023-04-01T02:03:26;11.00;;;5.97;;
10309;SDS011;5200;43.236;27.986;2023-04-01T02:05:56;17.75;;;6.32;;
10309;SDS011;5200;43.236;27.986;2023-04-01T02:08:26;7.47;;;5.00;;
10309;SDS011;5200;43.236;27.986;2023-04-01T02:10:59;7.55;;;5.10;;
10309;SDS011;5200;43.236;27.986;2023-04-01T02:13:29;8.90;;;4.60;;
10309;SDS011;5200;43.236;27.986;2023-04-01T02:16:03;9.02;;;4.50;;
10309;SDS011;5200;43.236;27.986;2023-04-01T02:18:35;7.70;;;4.22;;
10309;SDS011;5200;43.236;27.986;2023-04-01T02:21:03;9.82;;;4.35;;
10309;SDS011;5200;43.236;27.986;2023-04-01T02:23:32;8.70;;;3.33;;
10309;SDS011;5200;43.236;27.986;2023-04-01T02:26:02;6.47;;;3.40;;
10309;SDS011;5200;43.236;27.986;2023-04-01T02:28:31;4.53;;;3.20;;
10309;SDS011;5200;43.236;27.986;2023-04-01T02:31:00;5.22;;;3.50;;
10309;SDS011;5200;43.236;27.986;2023-04-01T02:33:28;6.32;;;2.92;;
10309;SDS011;5200;43.236;27.986;2023-04-01T02:35:57;9.07;;;3.53;;
10309;SDS011;5200;43.236;27.986;2023-04-01T02:38:24;6.10;;;3.17;;
10309;SDS011;5200;43.236;27.986;2023-04-01T02:40:51;9.82;;;5.43;;
10309;SDS011;5200;43.236;27.986;2023-04-01T02:43:25;8.65;;;5.32;;
10309;SDS011;5200;43.236;27.986;2023-04-01T02:45:52;10.90;;;3.97;;
10309;SDS011;5200;43.236;27.986;2023-04-01T02:48:19;11.70;;;4.68;;
10309;SDS011;5200;43.236;27.986;2023-04-01T02:50:45;7.35;;;3.88;;
10309;SDS011;5200;43.236;27.986;2023-04-01T02:53:12;4.60;;;2.50;;
10309;SDS011;5200;43.236;27.986;2023-04-01T02:55:39;5.30;;;3.30;;
10309;SDS011;5200;43.236;27.986;2023-04-01T02:58:06;3.45;;;2.63;;
10309;SDS011;5200;43.236;27.986;2023-04-01T03:00:34;7.55;;;2.65;;
10309;SDS011;5200;43.236;27.986;2023-04-01T03:03:01;4.45;;;2.95;;
10309;SDS011;5200;43.236;27.986;2023-04-01T03:05:28;3.80;;;2.55;;
10309;SDS011;5200;43.236;27.986;2023-04-01T03:07:55;4.82;;;3.30;;
10309;SDS011;5200;43.236;27.986;2023-04-01T03:10:22;11.13;;;5.70;;
10309;SDS011;5200;43.236;27.986;2023-04-01T03:12:49;11.13;;;5.40;;
10309;SDS011;5200;43.236;27.986;2023-04-01T03:15:16;7.18;;;3.90;;
10309;SDS011;5200;43.236;27.986;2023-04-01T03:17:44;5.85;;;4.25;;
10309;SDS011;5200;43.236;27.986;2023-04-01T03:20:12;5.53;;;3.90;;
10309;SDS011;5200;43.236;27.986;2023-04-01T03:22:40;12.70;;;8.07;;
10309;SDS011;5200;43.236;27.986;2023-04-01T03:25:07;6.85;;;4.28;;
10309;SDS011;5200;43.236;27.986;2023-04-01T03:27:34;7.13;;;4.43;;
10309;SDS011;5200;43.236;27.986;2023-04-01T03:30:01;26.65;;;12.73;;
10309;SDS011;5200;43.236;27.986;2023-04-01T03:32:29;21.92;;;11.15;;
10309;SDS011;5200;43.236;27.986;2023-04-01T03:34:58;10.05;;;5.50;;
10309;SDS011;5200;43.236;27.986;2023-04-01T03:37:24;10.15;;;5.22;;
10309;SDS011;5200;43.236;27.986;2023-04-01T03:39:51;13.63;;;9.40;;
10309;SDS011;5200;43.236;27.986;2023-04-01T03:42:18;7.60;;;5.35;;
10309;SDS011;5200;43.236;27.986;2023-04-01T03:44:45;6.65;;;4.10;;
10309;SDS011;5200;43.236;27.986;2023-04-01T03:47:12;8.80;;;5.10;;
10309;SDS011;5200;43.236;27.986;2023-04-01T03:49:38;6.85;;;4.50;;
10309;SDS011;5200;43.236;27.986;2023-04-01T03:52:09;11.98;;;4.30;;
10309;SDS011;5200;43.236;27.986;2023-04-01T03:54:36;12.48;;;6.05;;
10309;SDS011;5200;43.236;27.986;2023-04-01T03:57:03;12.90;;;7.75;;
10309;SDS011;5200;43.236;27.986;2023-04-01T03:59:30;8.00;;;5.55;;
10309;SDS011;5200;43.236;27.986;2023-04-01T04:01:57;10.05;;;5.20;;
10309;SDS011;5200;43.236;27.986;2023-04-01T04:04:24;7.65;;;4.05;;
10309;SDS011;5200;43.236;27.986;2023-04-01T04:06:51;6.40;;;4.45;;
10309;SDS011;5200;43.236;27.986;2023-04-01T04:09:19;6.30;;;5.55;;
10309;SDS011;5200;43.236;27.986;2023-04-01T04:11:46;8.88;;;5.70;;
10309;SDS011;5200;43.236;27.986;2023-04-01T04:14:12;10.15;;;7.50;;
10309;SDS011;5200;43.236;27.986;2023-04-01T04:16:39;12.40;;;8.02;;
10309;SDS011;5200;43.236;27.986;2023-04-01T04:19:06;14.82;;;9.13;;
10309;SDS011;5200;43.236;27.986;2023-04-01T04:21:33;15.32;;;9.65;;
10309;SDS011;5200;43.236;27.986;2023-04-01T04:24:00;19.25;;;9.98;;
10309;SDS011;5200;43.236;27.986;2023-04-01T04:26:28;13.48;;;9.60;;
10309;SDS011;5200;43.236;27.986;2023-04-01T04:28:55;15.55;;;8.05;;
10309;SDS011;5200;43.236;27.986;2023-04-01T04:31:22;14.25;;;7.13;;
10309;SDS011;5200;43.236;27.986;2023-04-01T04:33:51;11.95;;;8.20;;
10309;SDS011;5200;43.236;27.986;2023-04-01T04:36:19;11.30;;;6.78;;
10309;SDS011;5200;43.236;27.986;2023-04-01T04:38:46;8.70;;;5.07;;
10309;SDS011;5200;43.236;27.986;2023-04-01T04:41:16;6.28;;;4.65;;
10309;SDS011;5200;43.236;27.986;2023-04-01T04:43:50;7.72;;;4.15;;
10309;SDS011;5200;43.236;27.986;2023-04-01T04:46:18;6.60;;;3.95;;
10309;SDS011;5200;43.236;27.986;2023-04-01T04:48:45;5.78;;;3.70;;
10309;SDS011;5200;43.236;27.986;2023-04-01T04:51:15;3.97;;;3.47;;
10309;SDS011;5200;43.236;27.986;2023-04-01T04:53:42;7.53;;;3.53;;
10309;SDS011;5200;43.236;27.986;2023-04-01T04:56:10;4.32;;;3.20;;
10309;SDS011;5200;43.236;27.986;2023-04-01T04:58:38;5.57;;;3.08;;
10309;SDS011;5200;43.236;27.986;2023-04-01T05:01:07;8.45;;;3.35;;
10309;SDS011;5200;43.236;27.986;2023-04-01T05:03:36;7.85;;;3.42;;
10309;SDS011;5200;43.236;27.986;2023-04-01T05:06:03;5.38;;;2.60;;
10309;SDS011;5200;43.236;27.986;2023-04-01T05:08:31;8.88;;;4.90;;
10309;SDS011;5200;43.236;27.986;2023-04-01T05:10:59;13.40;;;6.68;;
10309;SDS011;5200;43.236;27.986;2023-04-01T05:13:26;8.95;;;6.32;;
10309;SDS011;5200;43.236;27.986;2023-04-01T05:15:53;14.25;;;7.60;;
10309;SDS011;5200;43.236;27.986;2023-04-01T05:18:21;10.57;;;6.68;;
10309;SDS011;5200;43.236;27.986;2023-04-01T05:20:49;11.32;;;7.95;;
10309;SDS011;5200;43.236;27.986;2023-04-01T05:23:18;11.73;;;7.65;;
10309;SDS011;5200;43.236;27.986;2023-04-01T05:25:46;7.70;;;5.72;;
10309;SDS011;5200;43.236;27.986;2023-04-01T05:28:13;6.45;;;5.32;;
10309;SDS011;5200;43.236;27.986;2023-04-01T05:30:40;12.95;;;5.30;;
10309;SDS011;5200;43.236;27.986;2023-04-01T05:33:07;8.43;;;4.28;;
10309;SDS011;5200;43.236;27.986;2023-04-01T05:35:36;9.15;;;5.05;;
10309;SDS011;5200;43.236;27.986;2023-04-01T05:38:03;8.82;;;4.43;;
10309;SDS011;5200;43.236;27.986;2023-04-01T05:40:30;8.10;;;4.43;;
10309;SDS011;5200;43.236;27.986;2023-04-01T05:42:58;10.52;;;4.15;;
10309;SDS011;5200;43.236;27.986;2023-04-01T05:45:25;8.70;;;4.55;;
10309;SDS011;5200;43.236;27.986;2023-04-01T05:47:52;6.18;;;4.07;;
10309;SDS011;5200;43.236;27.986;2023-04-01T05:50:19;6.03;;;3.92;;
10309;SDS011;5200;43.236;27.986;2023-04-01T05:52:47;8.00;;;3.40;;
10309;SDS011;5200;43.236;27.986;2023-04-01T05:55:14;6.40;;;3.85;;
10309;SDS011;5200;43.236;27.986;2023-04-01T05:57:41;7.93;;;3.35;;
10309;SDS011;5200;43.236;27.986;2023-04-01T06:00:08;5.95;;;3.25;;
10309;SDS011;5200;43.236;27.986;2023-04-01T06:02:36;7.50;;;3.30;;
10309;SDS011;5200;43.236;27.986;2023-04-01T06:05:11;6.18;;;2.78;;
10309;SDS011;5200;43.236;27.986;2023-04-01T06:07:40;3.63;;;2.40;;
10309;SDS011;5200;43.236;27.986;2023-04-01T06:10:11;6.18;;;2.65;;
10309;SDS011;5200;43.236;27.986;2023-04-01T06:12:43;6.53;;;2.97;;
10309;SDS011;5200;43.236;27.986;2023-04-01T06:15:19;5.97;;;2.67;;
10309;SDS011;5200;43.236;27.986;2023-04-01T06:17:54;6.25;;;2.63;;
10309;SDS011;5200;43.236;27.986;2023-04-01T06:20:36;7.55;;;2.70;;
10309;SDS011;5200;43.236;27.986;2023-04-01T06:26:14;4.25;;;2.60;;
10309;SDS011;5200;43.236;27.986;2023-04-01T06:28:54;5.38;;;2.97;;
10309;SDS011;5200;43.236;27.986;2023-04-01T06:31:43;6.07;;;4.28;;
10309;SDS011;5200;43.236;27.986;2023-04-01T06:34:32;13.10;;;4.22;;
10309;SDS011;5200;43.236;27.986;2023-04-01T06:37:12;10.13;;;5.10;;
10309;SDS011;5200;43.236;27.986;2023-04-01T06:39:55;7.68;;;5.80;;
10309;SDS011;5200;43.236;27.986;2023-04-01T06:42:44;6.57;;;4.82;;
10309;SDS011;5200;43.236;27.986;2023-04-01T06:45:26;6.13;;;4.03;;
10309;SDS011;5200;43.236;27.986;2023-04-01T06:48:03;8.20;;;4.22;;
10309;SDS011;5200;43.236;27.986;2023-04-01T06:50:43;8.68;;;4.25;;
10309;SDS011;5200;43.236;27.986;2023-04-01T06:53:17;8.70;;;4.28;;
10309;SDS011;5200;43.236;27.986;2023-04-01T06:55:49;6.68;;;4.63;;
10309;SDS011;5200;43.236;27.986;2023-04-01T06:58:22;8.13;;;4.30;;
10309;SDS011;5200;43.236;27.986;2023-04-01T07:00:51;5.50;;;3.70;;
10309;SDS011;5200;43.236;27.986;2023-04-01T07:03:23;3.72;;;3.35;;
10309;SDS011;5200;43.236;27.986;2023-04-01T07:05:59;9.20;;;3.28;;
10309;SDS011;5200;43.236;27.986;2023-04-01T07:08:29;4.38;;;3.28;;
10309;SDS011;5200;43.236;27.986;2023-04-01T07:11:03;5.15;;;3.53;;
10309;SDS011;5200;43.236;27.986;2023-04-01T07:13:32;8.30;;;3.28;;
10309;SDS011;5200;43.236;27.986;2023-04-01T07:16:08;6.68;;;3.45;;
10309;SDS011;5200;43.236;27.986;2023-04-01T07:18:42;9.32;;;4.20;;
10309;SDS011;5200;43.236;27.986;2023-04-01T07:21:17;6.43;;;3.85;;
10309;SDS011;5200;43.236;27.986;2023-04-01T07:23:50;11.02;;;3.60;;
10309;SDS011;5200;43.236;27.986;2023-04-01T07:26:19;7.57;;;3.88;;
10309;SDS011;5200;43.236;27.986;2023-04-01T07:28:49;8.95;;;3.88;;
10309;SDS011;5200;43.236;27.986;2023-04-01T07:31:34;6.28;;;3.30;;
10309;SDS011;5200;43.236;27.986;2023-04-01T07:34:16;6.32;;;3.83;;
10309;SDS011;5200;43.236;27.986;2023-04-01T07:36:50;6.75;;;3.70;;
10309;SDS011;5200;43.236;27.986;2023-04-01T07:39:29;7.32;;;4.05;;
10309;SDS011;5200;43.236;27.986;2023-04-01T07:42:05;6.20;;;3.47;;
10309;SDS011;5200;43.236;27.986;2023-04-01T07:44:44;5.93;;;3.50;;
10309;SDS011;5200;43.236;27.986;2023-04-01T07:47:24;6.57;;;3.33;;
10309;SDS011;5200;43.236;27.986;2023-04-01T07:50:05;8.50;;;4.38;;
10309;SDS011;5200;43.236;27.986;2023-04-01T07:52:41;5.43;;;3.20;;
10309;SDS011;5200;43.236;27.986;2023-04-01T07:55:16;12.63;;;3.35;;
10309;SDS011;5200;43.236;27.986;2023-04-01T07:57:50;11.57;;;4.38;;
10309;SDS011;5200;43.236;27.986;2023-04-01T08:00:24;9.70;;;3.70;;
10309;SDS011;5200;43.236;27.986;2023-04-01T08:03:06;12.10;;;3.75;;
10309;SDS011;5200;43.236;27.986;2023-04-01T08:05:46;14.00;;;4.50;;
10309;SDS011;5200;43.236;27.986;2023-04-01T08:08:26;7.82;;;2.92;;
10309;SDS011;5200;43.236;27.986;2023-04-01T08:11:04;11.93;;;4.50;;
10309;SDS011;5200;43.236;27.986;2023-04-01T08:13:40;8.80;;;3.78;;
10309;SDS011;5200;43.236;27.986;2023-04-01T08:16:15;6.40;;;3.58;;
10309;SDS011;5200;43.236;27.986;2023-04-01T08:18:52;5.68;;;3.70;;
10309;SDS011;5200;43.236;27.986;2023-04-01T08:21:23;11.02;;;3.88;;
10309;SDS011;5200;43.236;27.986;2023-04-01T08:23:54;6.50;;;2.97;;
10309;SDS011;5200;43.236;27.986;2023-04-01T08:26:26;7.03;;;3.65;;
10309;SDS011;5200;43.236;27.986;2023-04-01T08:28:57;7.97;;;3.88;;
10309;SDS011;5200;43.236;27.986;2023-04-01T08:31:31;4.57;;;3.13;;
10309;SDS011;5200;43.236;27.986;2023-04-01T08:34:03;8.73;;;3.30;;
10309;SDS011;5200;43.236;27.986;2023-04-01T08:36:37;10.18;;;3.55;;
10309;SDS011;5200;43.236;27.986;2023-04-01T08:39:11;9.45;;;3.47;;
10309;SDS011;5200;43.236;27.986;2023-04-01T08:41:48;7.05;;;3.65;;
10309;SDS011;5200;43.236;27.986;2023-04-01T08:44:36;8.02;;;3.28;;
10309;SDS011;5200;43.236;27.986;2023-04-01T08:53:03;7.57;;;3.63;;
10309;SDS011;5200;43.236;27.986;2023-04-01T08:55:40;10.15;;;3.38;;
10309;SDS011;5200;43.236;27.986;2023-04-01T09:01:14;9.70;;;3.65;;
10309;SDS011;5200;43.236;27.986;2023-04-01T09:04:00;9.02;;;3.80;;
10309;SDS011;5200;43.236;27.986;2023-04-01T09:06:44;11.23;;;4.75;;
10309;SDS011;5200;43.236;27.986;2023-04-01T09:09:24;14.15;;;4.90;;
10309;SDS011;5200;43.236;27.986;2023-04-01T09:12:27;9.73;;;4.32;;
10309;SDS011;5200;43.236;27.986;2023-04-01T09:21:25;6.50;;;3.13;;
10309;SDS011;5200;43.236;27.986;2023-04-01T09:27:02;6.65;;;3.03;;
10309;SDS011;5200;43.236;27.986;2023-04-01T09:29:39;8.50;;;3.47;;
10309;SDS011;5200;43.236;27.986;2023-04-01T09:32:36;5.70;;;3.63;;
10309;SDS011;5200;43.236;27.986;2023-04-01T09:35:22;9.15;;;3.60;;
10309;SDS011;5200;43.236;27.986;2023-04-01T09:37:57;7.38;;;4.53;;
10309;SDS011;5200;43.236;27.986;2023-04-01T09:40:41;14.13;;;4.85;;
10309;SDS011;5200;43.236;27.986;2023-04-01T09:43:21;12.48;;;4.38;;
10309;SDS011;5200;43.236;27.986;2023-04-01T09:45:55;8.60;;;4.18;;
10309;SDS011;5200;43.236;27.986;2023-04-01T09:48:35;9.40;;;4.88;;
10309;SDS011;5200;43.236;27.986;2023-04-01T09:51:23;11.98;;;5.35;;
10309;SDS011;5200;43.236;27.986;2023-04-01T09:54:01;11.02;;;4.45;;
10309;SDS011;5200;43.236;27.986;2023-04-01T09:59:57;8.27;;;3.47;;
10309;SDS011;5200;43.236;27.986;2023-04-01T10:02:53;9.65;;;3.50;;
10309;SDS011;5200;43.236;27.986;2023-04-01T10:08:51;12.00;;;4.15;;
10309;SDS011;5200;43.236;27.986;2023-04-01T10:18:05;7.00;;;3.72;;
10309;SDS011;5200;43.236;27.986;2023-04-01T10:21:16;7.45;;;3.97;;
10309;SDS011;5200;43.236;27.986;2023-04-01T10:29:59;11.98;;;5.80;;
10309;SDS011;5200;43.236;27.986;2023-04-01T10:33:06;10.45;;;4.70;;
10309;SDS011;5200;43.236;27.986;2023-04-01T10:36:00;10.35;;;6.28;;
10309;SDS011;5200;43.236;27.986;2023-04-01T10:38:56;14.02;;;6.82;;
10309;SDS011;5200;43.236;27.986;2023-04-01T10:42:02;15.13;;;6.72;;
10309;SDS011;5200;43.236;27.986;2023-04-01T10:51:02;11.15;;;6.57;;
10309;SDS011;5200;43.236;27.986;2023-04-01T10:53:37;15.60;;;7.80;;
10309;SDS011;5200;43.236;27.986;2023-04-01T10:56:34;35.58;;;19.27;;
10309;SDS011;5200;43.236;27.986;2023-04-01T10:59:15;11.32;;;7.05;;
10309;SDS011;5200;43.236;27.986;2023-04-01T11:05:22;16.90;;;5.82;;
10309;SDS011;5200;43.236;27.986;2023-04-01T11:08:27;11.95;;;6.60;;
10309;SDS011;5200;43.236;27.986;2023-04-01T11:17:38;10.52;;;5.18;;
10309;SDS011;5200;43.236;27.986;2023-04-01T11:23:50;8.82;;;3.75;;
10309;SDS011;5200;43.236;27.986;2023-04-01T11:26:32;7.28;;;4.30;;
10309;SDS011;5200;43.236;27.986;2023-04-01T11:31:58;8.80;;;4.10;;
10309;SDS011;5200;43.236;27.986;2023-04-01T11:34:43;8.80;;;3.92;;
10309;SDS011;5200;43.236;27.986;2023-04-01T11:37:27;8.38;;;4.75;;
10309;SDS011;5200;43.236;27.986;2023-04-01T11:40:11;9.55;;;3.97;;
10309;SDS011;5200;43.236;27.986;2023-04-01T11:42:49;10.77;;;4.25;;
10309;SDS011;5200;43.236;27.986;2023-04-01T11:45:30;14.55;;;5.10;;
10309;SDS011;5200;43.236;27.986;2023-04-01T11:50:57;11.75;;;4.75;;
10309;SDS011;5200;43.236;27.986;2023-04-01T11:53:52;12.77;;;4.63;;
10309;SDS011;5200;43.236;27.986;2023-04-01T11:56:34;14.90;;;4.50;;
10309;SDS011;5200;43.236;27.986;2023-04-01T12:02:25;10.88;;;5.65;;
10309;SDS011;5200;43.236;27.986;2023-04-01T12:05:08;17.83;;;4.97;;
10309;SDS011;5200;43.236;27.986;2023-04-01T12:07:51;9.98;;;4.97;;
10309;SDS011;5200;43.236;27.986;2023-04-01T12:10:29;13.98;;;7.30;;
10309;SDS011;5200;43.236;27.986;2023-04-01T12:13:07;20.13;;;11.23;;
10309;SDS011;5200;43.236;27.986;2023-04-01T12:15:52;20.35;;;9.13;;
10309;SDS011;5200;43.236;27.986;2023-04-01T12:18:33;13.45;;;5.93;;
10309;SDS011;5200;43.236;27.986;2023-04-01T12:21:08;8.50;;;4.57;;
10309;SDS011;5200;43.236;27.986;2023-04-01T12:26:55;8.85;;;3.65;;
10309;SDS011;5200;43.236;27.986;2023-04-01T12:29:40;7.70;;;4.00;;
10309;SDS011;5200;43.236;27.986;2023-04-01T12:32:20;12.90;;;4.65;;
10309;SDS011;5200;43.236;27.986;2023-04-01T12:35:01;11.70;;;4.47;;
10309;SDS011;5200;43.236;27.986;2023-04-01T12:37:39;13.73;;;6.85;;
10309;SDS011;5200;43.236;27.986;2023-04-01T12:46:10;10.27;;;4.38;;
10309;SDS011;5200;43.236;27.986;2023-04-01T12:51:50;12.45;;;4.85;;
10309;SDS011;5200;43.236;27.986;2023-04-01T12:57:43;9.60;;;5.03;;
10309;SDS011;5200;43.236;27.986;2023-04-01T13:00:27;15.88;;;5.40;;
10309;SDS011;5200;43.236;27.986;2023-04-01T13:03:16;15.18;;;5.10;;
10309;SDS011;5200;43.236;27.986;2023-04-01T13:08:55;16.30;;;5.82;;
10309;SDS011;5200;43.236;27.986;2023-04-01T13:11:32;11.32;;;4.78;;
10309;SDS011;5200;43.236;27.986;2023-04-01T13:17:09;11.80;;;5.57;;
10309;SDS011;5200;43.236;27.986;2023-04-01T13:19:45;20.95;;;8.27;;
10309;SDS011;5200;43.236;27.986;2023-04-01T13:22:18;10.38;;;5.22;;
10309;SDS011;5200;43.236;27.986;2023-04-01T13:24:50;11.02;;;6.38;;
10309;SDS011;5200;43.236;27.986;2023-04-01T13:27:25;10.10;;;5.18;;
10309;SDS011;5200;43.236;27.986;2023-04-01T13:30:00;16.52;;;7.95;;
10309;SDS011;5200;43.236;27.986;2023-04-01T13:32:40;13.60;;;6.38;;
10309;SDS011;5200;43.236;27.986;2023-04-01T13:35:20;13.57;;;6.55;;
10309;SDS011;5200;43.236;27.986;2023-04-01T13:38:09;18.52;;;7.50;;
10309;SDS011;5200;43.236;27.986;2023-04-01T13:40:51;14.18;;;6.05;;
10309;SDS011;5200;43.236;27.986;2023-04-01T13:43:28;11.32;;;5.65;;
10309;SDS011;5200;43.236;27.986;2023-04-01T13:46:11;16.30;;;6.53;;
10309;SDS011;5200;43.236;27.986;2023-04-01T13:48:56;19.45;;;5.82;;
10309;SDS011;5200;43.236;27.986;2023-04-01T13:51:57;15.00;;;6.28;;
10309;SDS011;5200;43.236;27.986;2023-04-01T13:57:34;13.75;;;7.30;;
10309;SDS011;5200;43.236;27.986;2023-04-01T14:00:20;16.98;;;7.25;;
10309;SDS011;5200;43.236;27.986;2023-04-01T14:02:59;16.35;;;7.63;;
10309;SDS011;5200;43.236;27.986;2023-04-01T14:05:47;9.45;;;6.32;;
10309;SDS011;5200;43.236;27.986;2023-04-01T14:08:29;8.52;;;4.22;;
10309;SDS011;5200;43.236;27.986;2023-04-01T14:11:13;13.07;;;4.32;;
10309;SDS011;5200;43.236;27.986;2023-04-01T14:13:48;8.95;;;3.97;;
10309;SDS011;5200;43.236;27.986;2023-04-01T14:19:30;12.13;;;4.45;;
10309;SDS011;5200;43.236;27.986;2023-04-01T14:22:13;12.05;;;4.50;;
10309;SDS011;5200;43.236;27.986;2023-04-01T14:24:59;10.00;;;4.68;;
10309;SDS011;5200;43.236;27.986;2023-04-01T14:27:51;12.13;;;4.15;;
10309;SDS011;5200;43.236;27.986;2023-04-01T14:30:30;9.40;;;3.85;;
10309;SDS011;5200;43.236;27.986;2023-04-01T14:33:11;8.63;;;4.53;;
10309;SDS011;5200;43.236;27.986;2023-04-01T14:35:49;11.07;;;5.75;;
10309;SDS011;5200;43.236;27.986;2023-04-01T14:38:35;13.85;;;6.47;;
10309;SDS011;5200;43.236;27.986;2023-04-01T14:41:18;13.60;;;6.72;;
10309;SDS011;5200;43.236;27.986;2023-04-01T14:47:03;16.25;;;5.50;;
10309;SDS011;5200;43.236;27.986;2023-04-01T14:49:46;15.45;;;5.90;;
10309;SDS011;5200;43.236;27.986;2023-04-01T14:52:16;19.73;;;6.47;;
10309;SDS011;5200;43.236;27.986;2023-04-01T14:54:49;19.55;;;7.13;;
10309;SDS011;5200;43.236;27.986;2023-04-01T14:57:22;19.65;;;5.45;;
10309;SDS011;5200;43.236;27.986;2023-04-01T14:59:51;14.25;;;5.70;;
10309;SDS011;5200;43.236;27.986;2023-04-01T15:02:30;14.38;;;6.20;;
10309;SDS011;5200;43.236;27.986;2023-04-01T15:05:07;17.17;;;7.05;;
10309;SDS011;5200;43.236;27.986;2023-04-01T15:07:50;15.98;;;6.75;;
10309;SDS011;5200;43.236;27.986;2023-04-01T15:10:31;18.30;;;7.50;;
10309;SDS011;5200;43.236;27.986;2023-04-01T15:13:13;15.23;;;5.90;;
10309;SDS011;5200;43.236;27.986;2023-04-01T15:15:49;12.20;;;5.00;;
10309;SDS011;5200;43.236;27.986;2023-04-01T15:18:30;10.18;;;4.93;;
10309;SDS011;5200;43.236;27.986;2023-04-01T15:21:18;15.77;;;5.05;;
10309;SDS011;5200;43.236;27.986;2023-04-01T15:23:57;11.38;;;4.07;;
10309;SDS011;5200;43.236;27.986;2023-04-01T15:26:35;14.02;;;5.00;;
10309;SDS011;5200;43.236;27.986;2023-04-01T15:32:31;17.95;;;5.20;;
10309;SDS011;5200;43.236;27.986;2023-04-01T15:35:14;15.68;;;4.13;;
10309;SDS011;5200;43.236;27.986;2023-04-01T15:37:51;10.80;;;4.57;;
10309;SDS011;5200;43.236;27.986;2023-04-01T15:40:22;9.73;;;4.60;;
10309;SDS011;5200;43.236;27.986;2023-04-01T15:42:57;13.75;;;4.35;;
10309;SDS011;5200;43.236;27.986;2023-04-01T15:45:41;10.73;;;5.03;;
10309;SDS011;5200;43.236;27.986;2023-04-01T15:48:28;16.23;;;5.25;;
10309;SDS011;5200;43.236;27.986;2023-04-01T15:51:09;9.57;;;4.50;;
10309;SDS011;5200;43.236;27.986;2023-04-01T15:53:50;8.60;;;4.35;;
10309;SDS011;5200;43.236;27.986;2023-04-01T15:56:36;10.23;;;5.15;;
10309;SDS011;5200;43.236;27.986;2023-04-01T15:59:18;11.23;;;4.50;;
10309;SDS011;5200;43.236;27.986;2023-04-01T16:01:59;15.93;;;9.02;;
10309;SDS011;5200;43.236;27.986;2023-04-01T16:04:43;16.20;;;8.35;;
10309;SDS011;5200;43.236;27.986;2023-04-01T16:07:19;16.08;;;6.32;;
10309;SDS011;5200;43.236;27.986;2023-04-01T16:09:56;16.02;;;5.45;;
10309;SDS011;5200;43.236;27.986;2023-04-01T16:12:41;11.85;;;4.75;;
10309;SDS011;5200;43.236;27.986;2023-04-01T16:15:21;13.32;;;5.95;;
10309;SDS011;5200;43.236;27.986;2023-04-01T16:21:07;17.35;;;9.20;;
10309;SDS011;5200;43.236;27.986;2023-04-01T16:23:39;24.45;;;10.82;;
10309;SDS011;5200;43.236;27.986;2023-04-01T16:26:14;14.13;;;6.38;;
10309;SDS011;5200;43.236;27.986;2023-04-01T16:28:48;20.50;;;10.02;;
10309;SDS011;5200;43.236;27.986;2023-04-01T16:31:27;14.05;;;6.47;;
10309;SDS011;5200;43.236;27.986;2023-04-01T16:34:04;19.17;;;7.55;;
10309;SDS011;5200;43.236;27.986;2023-04-01T16:36:37;15.15;;;8.80;;
10309;SDS011;5200;43.236;27.986;2023-04-01T16:39:18;18.23;;;6.78;;
10309;SDS011;5200;43.236;27.986;2023-04-01T16:41:57;17.98;;;7.75;;
10309;SDS011;5200;43.236;27.986;2023-04-01T16:44:46;14.75;;;5.72;;
10309;SDS011;5200;43.236;27.986;2023-04-01T16:47:17;19.25;;;6.18;;
10309;SDS011;5200;43.236;27.986;2023-04-01T16:49:50;19.60;;;6.70;;
10309;SDS011;5200;43.236;27.986;2023-04-01T16:52:30;17.45;;;5.53;;
10309;SDS011;5200;43.236;27.986;2023-04-01T16:55:04;17.85;;;6.68;;
10309;SDS011;5200;43.236;27.986;2023-04-01T16:57:43;18.80;;;8.00;;
10309;SDS011;5200;43.236;27.986;2023-04-01T17:00:16;18.88;;;7.55;;
10309;SDS011;5200;43.236;27.986;2023-04-01T17:02:51;25.33;;;11.63;;
10309;SDS011;5200;43.236;27.986;2023-04-01T17:05:35;26.08;;;10.45;;
10309;SDS011;5200;43.236;27.986;2023-04-01T17:08:09;22.25;;;10.18;;
10309;SDS011;5200;43.236;27.986;2023-04-01T17:10:48;17.38;;;7.05;;
10309;SDS011;5200;43.236;27.986;2023-04-01T17:13:30;23.48;;;7.53;;
10309;SDS011;5200;43.236;27.986;2023-04-01T17:16:13;18.33;;;7.20;;
10309;SDS011;5200;43.236;27.986;2023-04-01T17:18:55;29.70;;;8.10;;
10309;SDS011;5200;43.236;27.986;2023-04-01T17:21:36;16.80;;;8.25;;